Portada
METAR-TAF:

METAR-TAF

Aeroports :

Sion, Suïssa

latitud: 46-13N, longitud: 007-20E, altitud: 482 m

Observació

L'informe es va fer fa 23 minuts, a les 23:50 UTC
Vent 1 kt amb direcció variable
Temperatura 13°C
Humitat 94%
Pressió 1001 hPa
Visibilitat 10 km o més
Núvols disperses a una alçada de 6500 ft
Cel ennuvolat a una alçada de 7500 ft

METAR: LSGS 042350Z AUTO VRB01KT 9999 SCT065 BKN075 13/12 Q1001

Hora: 02:13 (00:13 UTC)

Pronòstic

L'informe es va fer fa 9 hores i 48 minuts, a les 14:25 UTC
Pronòstic vàlid del 04 a les 15 UTC al 04 a les 24 UTC
Vent 9 kt del Oest
Visibilitat 10 km o més
Escasses núvols a una alçada de 2000 ft
Núvols disperses a una alçada de 5000 ft
Cel cobert a una alçada de 8000 ft
pluja

TAF: LSGS 041425Z 0415/0424 26009KT 9999 -RA FEW020 SCT050 OVC080

Observacions i pronòstics meteorològics de més de 4000 aeroports (METAR i TAF).

Les estacions disponibles són els punts grocs i vermells al mapa.

Posi el ratolí al punt desitjat per veure el nom de l'estació.

Feu clic per veure les observacions i els pronòstics meteorològics.

Per canviar el mapa: feu clic els botons verds amb una creu de color negre per apropar; al botó verd amb un guió per allunyar la imatge; o en les fletxes verdes per a mapes adjacents.


METAR-TAF: